Skip Navigation Links Skip Navigation Links

Current Weather

Fallbrook Community Airpark, Fallbrook, Calif.

For information only: do not use for flight planning or navigation.
Latest weather
Observation time Tuesday, October 19, 2021 12:55 AM PDT
Local time Tuesday, October 19, 2021 12:52 AM PDT
Flight conditions Visual Meteorological Conditions
Winds
Wind direction North (10°)
Wind speed 6 mph
Visibility 10 mi.
Sky condition
Ceiling unlimited
Sky clear
Temperature 48°F
Dewpoint 46°F
Altimeter 30.00 in.Hg
Derived measurements
Relative humidity 93%
Wind chill 46°F
Density altitude 52 ft.
Remarks
Fully automated report.
Automated weather observing station with precipitation discriminator.
METAR KL18 190755Z AUTO 01005KT 10SM CLR 09/08 A3000 RMK AO2

Settings

Location code

InnerDrive.Weather 4.0.6770.0 Release CLR 4.0.30319.42000
Copyright ©2018 Inner Drive Technology. All rights reserved. Portions Copyright ©1986-2018 David Braverman.

Find weather

Site navigation


Skip Navigation Links

Place info

Page info

PayPal - The safer, easier way to pay online!

Return home.

Copyright ©2021 Inner Drive Technology. Purveyors of fine, hand-crafted computer software. Page printed 2021-10-19T07:52:03 UTC.